Terminal Aerodrome Forecast
Issued by NWS

Home | Current Version | Previous Version | Text Only | Print | Product List | Glossary On
Versions: 1 2 3 4 5 6 7 8 9 10 11 12 13 14 15 16 17 18 19
000
FTUS44 KBMX 302211 AAA
TAFANB
TAF AMD
KANB 302211Z 3022/3118 23010KT P6SM SCT025 BKN100
     FM310200 23003KT P6SM FEW040 BKN150
     FM311500 24006KT P6SM SCT050 SCT250
     FM311700 23007KT P6SM VCTS BKN050CB=

USA.gov is the U.S. government's official web portal to all federal, state and local government web resources and services.